Time;durP1;ratioP1;P1;durP2;ratioP2;P2;SDS_P1;SDS_P2;PMS_P1;PMS_P2;Temp;Humidity;BMP_temperature;BMP_pressure;BME280_temperature;BME280_humidity;BME280_pressure;Samples;Min_cycle;Max_cycle;Signal;HPM_P1;HPM_P2
2024/01/11 00:00:52;;;;;;;;;103.00;80.25;;;;;-5.14;60.72;100711.78;5016478;28;11140;-79
2024/01/11 00:03:39;;;;;;;;;103.25;78.50;;;;;-4.99;60.46;100705.81;5011344;28;10387;-80
2024/01/11 00:06:08;;;;;;;;;104.75;77.75;;;;;-4.90;60.07;100709.81;5013988;28;10132;-78
2024/01/11 00:08:39;;;;;;;;;104.25;78.75;;;;;-4.79;60.20;100705.34;5028795;28;10048;-79
2024/01/11 00:11:08;;;;;;;;;107.75;82.50;;;;;-4.64;59.67;100701.13;5013682;28;9964;-79
2024/01/11 00:13:37;;;;;;;;;104.50;82.25;;;;;-4.50;59.44;100699.34;4996989;28;10465;-78
2024/01/11 00:16:06;;;;;;;;;110.75;90.25;;;;;-4.38;59.23;100698.28;5013522;28;11081;-79
2024/01/11 00:18:35;;;;;;;;;102.75;81.75;;;;;-4.30;58.45;100700.53;5029884;28;10395;-79
2024/01/11 00:21:04;;;;;;;;;103.00;82.75;;;;;-4.25;57.97;100695.63;5013361;28;10149;-79
2024/01/11 00:23:33;;;;;;;;;98.75;77.00;;;;;-4.23;58.18;100694.91;5027468;28;10893;-79
2024/01/11 00:26:03;;;;;;;;;105.75;81.50;;;;;-4.13;58.14;100698.00;5013445;28;10066;-82
2024/01/11 00:28:33;;;;;;;;;100.75;78.50;;;;;-3.95;57.72;100691.34;5013184;28;10262;-77
2024/01/11 00:31:01;;;;;;;;;110.75;90.25;;;;;-4.02;57.90;100691.78;4965065;28;10251;-79
2024/01/11 00:33:31;;;;;;;;;109.25;84.25;;;;;-3.95;57.60;100686.22;4992181;28;10343;-78
2024/01/11 00:36:00;;;;;;;;;112.25;88.75;;;;;-3.86;57.75;100684.16;5031386;28;10259;-78
2024/01/11 00:38:29;;;;;;;;;98.00;71.75;;;;;-3.79;57.31;100694.78;4971226;28;10276;-78
2024/01/11 00:40:58;;;;;;;;;96.50;75.50;;;;;-3.75;56.93;100694.13;5006536;28;10155;-78
2024/01/11 00:43:28;;;;;;;;;103.25;81.75;;;;;-4.05;57.07;100696.78;4957987;28;10159;-79
2024/01/11 00:45:57;;;;;;;;;102.00;81.00;;;;;-4.53;58.72;100693.16;4989993;28;10171;-78
2024/01/11 00:48:26;;;;;;;;;98.75;77.00;;;;;-4.66;59.36;100692.44;4973710;28;10290;-80
2024/01/11 00:50:55;;;;;;;;;105.75;77.25;;;;;-4.61;58.71;100701.28;4973609;28;10083;-78
2024/01/11 00:53:24;;;;;;;;;106.00;83.00;;;;;-4.52;59.08;100702.63;4976125;28;10182;-79
2024/01/11 00:55:53;;;;;;;;;108.75;84.00;;;;;-4.35;58.37;100703.63;4975096;28;9916;-77
2024/01/11 00:58:23;;;;;;;;;109.00;85.75;;;;;-4.37;58.32;100695.81;4957547;28;10097;-78
2024/01/11 01:00:53;;;;;;;;;103.00;81.50;;;;;-4.31;58.37;100698.72;4988359;28;10376;-77
2024/01/11 01:03:23;;;;;;;;;107.00;79.50;;;;;-4.12;58.37;100695.53;4992658;28;10131;-78
2024/01/11 01:05:52;;;;;;;;;98.75;75.50;;;;;-4.00;57.71;100700.47;5063237;28;9963;-78
2024/01/11 01:08:21;;;;;;;;;100.00;79.00;;;;;-4.61;58.47;100706.41;5063118;28;9805;-79
2024/01/11 01:10:50;;;;;;;;;101.75;77.00;;;;;-4.87;59.49;100702.31;5063083;28;10259;-77
2024/01/11 01:13:19;;;;;;;;;101.25;75.00;;;;;-4.82;59.19;100702.59;5014614;28;10161;-78
2024/01/11 01:15:48;;;;;;;;;107.75;80.75;;;;;-4.58;58.98;100700.59;5030556;28;10239;-79
2024/01/11 01:18:19;;;;;;;;;108.75;84.75;;;;;-4.33;58.58;100691.75;5031156;28;10112;-78
2024/01/11 01:20:48;;;;;;;;;105.50;80.50;;;;;-4.17;58.34;100690.94;5037188;28;10320;-77
2024/01/11 01:23:18;;;;;;;;;106.00;79.50;;;;;-4.36;57.54;100691.56;5052769;28;10159;-77
2024/01/11 01:25:46;;;;;;;;;105.25;81.00;;;;;-4.18;57.27;100684.91;5052244;28;10340;-77
2024/01/11 01:28:15;;;;;;;;;99.00;75.50;;;;;-4.06;57.14;100692.44;5050316;28;10264;-77
2024/01/11 01:30:44;;;;;;;;;92.75;69.75;;;;;-3.92;57.14;100685.53;5016085;28;11776;-83
2024/01/11 01:33:13;;;;;;;;;77.00;64.50;;;;;-3.94;56.77;100677.72;5054849;28;10132;-78
2024/01/11 01:35:45;;;;;;;;;106.00;78.50;;;;;-4.99;59.78;100683.63;5056770;28;9758;-78
2024/01/11 01:38:15;;;;;;;;;96.50;74.25;;;;;-5.43;60.96;100684.38;5050338;28;10564;-81
2024/01/11 01:40:44;;;;;;;;;97.25;77.75;;;;;-5.57;61.11;100682.63;5051198;28;10148;-77
2024/01/11 01:43:13;;;;;;;;;100.00;75.50;;;;;-5.58;61.85;100683.44;5053055;28;10193;-84
2024/01/11 01:45:42;;;;;;;;;100.50;76.50;;;;;-5.20;60.52;100681.53;5049129;28;9818;-79
2024/01/11 01:48:12;;;;;;;;;98.25;75.50;;;;;-5.85;62.74;100689.47;5031723;28;10133;-79
2024/01/11 01:50:42;;;;;;;;;97.00;73.50;;;;;-5.75;63.48;100680.69;5015516;28;9745;-78
2024/01/11 01:53:13;;;;;;;;;103.25;77.00;;;;;-5.34;61.92;100682.38;5047757;28;9964;-78
2024/01/11 01:55:42;;;;;;;;;97.00;78.00;;;;;-5.03;61.23;100673.97;5049229;28;9973;-77
2024/01/11 01:58:13;;;;;;;;;99.75;77.50;;;;;-4.74;60.66;100665.44;5048717;28;9912;-78
2024/01/11 02:00:43;;;;;;;;;100.25;77.75;;;;;-4.48;59.74;100664.41;5048857;28;9827;-77
2024/01/11 02:03:13;;;;;;;;;104.25;80.75;;;;;-4.76;58.99;100659.34;5048945;28;9812;-76
2024/01/11 02:05:43;;;;;;;;;95.75;75.00;;;;;-4.55;58.37;100649.44;5031980;28;10086;-81
2024/01/11 02:08:18;;;;;;;;;108.00;84.25;;;;;-4.57;57.47;100651.03;5045531;28;9807;-77
2024/01/11 02:10:48;;;;;;;;;101.50;75.50;;;;;-4.61;58.37;100649.09;5028554;28;10023;-79
2024/01/11 02:13:17;;;;;;;;;101.75;73.50;;;;;-4.47;58.57;100655.00;4994460;28;9610;-80
2024/01/11 02:15:46;;;;;;;;;101.25;78.50;;;;;-4.26;58.40;100653.69;5063637;28;9616;-77
2024/01/11 02:18:15;;;;;;;;;103.50;78.50;;;;;-4.11;57.46;100657.91;5037317;28;9979;-79
2024/01/11 02:20:44;;;;;;;;;108.00;86.25;;;;;-4.08;57.04;100653.81;5045600;28;10016;-77
2024/01/11 02:23:19;;;;;;;;;111.50;92.00;;;;;-3.85;56.90;100649.97;4996823;28;11150;-80
2024/01/11 02:25:49;;;;;;;;;114.25;92.25;;;;;-3.74;56.30;100647.97;5028428;28;10407;-77
2024/01/11 02:28:19;;;;;;;;;98.75;75.00;;;;;-3.80;55.93;100649.34;5029796;28;10396;-81
2024/01/11 02:30:47;;;;;;;;;105.00;81.00;;;;;-3.77;55.59;100647.84;5030362;28;10369;-79
2024/01/11 02:33:18;;;;;;;;;116.00;93.25;;;;;-3.65;55.61;100645.03;5046479;28;10321;-78
2024/01/11 02:35:47;;;;;;;;;114.25;91.25;;;;;-3.54;55.18;100645.63;5047614;28;10493;-81
2024/01/11 02:38:17;;;;;;;;;115.50;93.50;;;;;-3.48;55.04;100640.81;5033014;28;10482;-77
2024/01/11 02:40:47;;;;;;;;;106.75;86.25;;;;;-3.37;54.82;100637.13;5063949;28;10786;-78
2024/01/11 02:43:18;;;;;;;;;117.75;96.25;;;;;-3.34;54.45;100636.38;5066872;28;10059;-78
2024/01/11 02:45:47;;;;;;;;;106.50;81.25;;;;;-3.28;54.30;100632.47;5050152;28;10424;-78
2024/01/11 02:48:16;;;;;;;;;110.75;96.75;;;;;-3.25;53.86;100626.59;5050071;28;10253;-77
2024/01/11 02:50:45;;;;;;;;;117.00;98.50;;;;;-3.44;53.11;100629.88;5049627;28;10517;-77
2024/01/11 02:53:14;;;;;;;;;111.25;89.00;;;;;-3.43;53.55;100631.66;5034301;28;10703;-81
2024/01/11 02:55:43;;;;;;;;;117.50;97.00;;;;;-3.34;53.23;100633.81;5049991;28;10717;-79
2024/01/11 02:58:12;;;;;;;;;114.75;95.50;;;;;-3.50;53.29;100634.69;5050990;28;10715;-78
2024/01/11 03:00:43;;;;;;;;;111.00;92.75;;;;;-3.50;53.65;100638.16;5066415;28;11002;-77
2024/01/11 03:03:12;;;;;;;;;113.50;93.00;;;;;-3.44;53.33;100632.44;5061602;28;10635;-80
2024/01/11 03:05:41;;;;;;;;;109.25;91.75;;;;;-3.51;53.04;100631.25;5054930;28;10451;-78
2024/01/11 03:08:11;;;;;;;;;104.50;78.25;;;;;-3.69;52.58;100627.69;5068195;28;10544;-81
2024/01/11 03:10:39;;;;;;;;;108.25;88.25;;;;;-3.71;53.22;100624.16;5050023;28;10333;-77
2024/01/11 03:13:09;;;;;;;;;101.00;78.75;;;;;-3.67;53.15;100626.97;5049990;28;11039;-81
2024/01/11 03:15:38;;;;;;;;;112.00;89.75;;;;;-3.69;53.02;100630.25;5060883;28;10330;-77
2024/01/11 03:18:08;;;;;;;;;111.50;90.75;;;;;-3.81;53.33;100625.31;5056482;28;10362;-77
2024/01/11 03:20:37;;;;;;;;;109.00;89.00;;;;;-3.81;53.67;100629.56;5057268;28;10318;-78
2024/01/11 03:23:07;;;;;;;;;109.00;91.50;;;;;-4.04;53.40;100626.63;5034155;28;10275;-78
2024/01/11 03:25:36;;;;;;;;;105.00;79.25;;;;;-3.99;54.02;100627.78;5042106;28;10242;-77
2024/01/11 03:28:05;;;;;;;;;109.25;84.75;;;;;-3.88;53.34;100618.09;5028117;28;10239;-83
2024/01/11 03:30:35;;;;;;;;;106.00;82.00;;;;;-4.19;54.21;100618.06;5028786;28;10277;-81
2024/01/11 03:33:05;;;;;;;;;109.25;86.25;;;;;-4.26;54.70;100610.03;5027156;28;10088;-77
2024/01/11 03:35:38;;;;;;;;;104.50;81.25;;;;;-4.89;55.78;100614.13;5010032;28;10343;-80
2024/01/11 03:38:07;;;;;;;;;102.75;80.50;;;;;-5.22;58.19;100611.34;5009912;28;10247;-77
2024/01/11 03:40:36;;;;;;;;;108.75;82.75;;;;;-4.77;57.02;100603.72;5004552;28;10222;-77
2024/01/11 03:43:06;;;;;;;;;103.75;80.00;;;;;-4.79;56.49;100601.84;5015123;28;10168;-78
2024/01/11 03:45:35;;;;;;;;;101.25;76.50;;;;;-5.38;57.96;100600.97;5025795;28;10068;-78
2024/01/11 03:48:04;;;;;;;;;99.50;75.50;;;;;-5.52;59.32;100602.69;5025958;28;9594;-78
2024/01/11 03:50:34;;;;;;;;;98.00;75.33;;;;;-5.42;59.14;100599.00;5009383;28;9795;-77
2024/01/11 03:53:04;;;;;;;;;85.67;69.00;;;;;-5.35;58.82;100593.47;5025615;28;9681;-79
2024/01/11 03:55:33;;;;;;;;;92.33;72.33;;;;;-5.29;58.92;100592.94;5023993;28;9491;-76
2024/01/11 03:58:02;;;;;;;;;96.33;73.33;;;;;-5.04;58.18;100595.28;5025030;28;10201;-78
2024/01/11 04:00:33;;;;;;;;;86.33;67.67;;;;;-4.85;57.85;100582.75;5025447;28;10022;-77
2024/01/11 04:03:02;;;;;;;;;88.00;69.33;;;;;-4.72;57.53;100575.75;5009036;28;9265;-79
2024/01/11 04:05:31;;;;;;;;;93.00;69.67;;;;;-4.59;56.79;100587.59;5009382;28;9131;-77
2024/01/11 04:08:01;;;;;;;;;83.25;65.25;;;;;-4.68;56.66;100580.25;5025394;28;9292;-78
2024/01/11 04:10:31;;;;;;;;;85.25;63.75;;;;;-4.76;56.75;100581.50;5025267;28;9586;-77
2024/01/11 04:13:00;;;;;;;;;102.50;77.00;;;;;-4.65;56.33;100567.63;5006694;28;8877;-77
2024/01/11 04:15:29;;;;;;;;;111.00;88.25;;;;;-4.47;56.45;100566.09;5045607;28;10166;-78
2024/01/11 04:17:58;;;;;;;;;84.00;69.00;;;;;-4.28;55.91;100569.69;5044900;28;10592;-79
2024/01/11 04:20:27;;;;;;;;;88.67;67.33;;;;;-4.34;55.51;100565.09;5046459;28;9082;-77
2024/01/11 04:22:57;;;;;;;;;86.67;70.33;;;;;-4.81;55.55;100565.88;4996280;28;8942;-81
2024/01/11 04:25:26;;;;;;;;;80.50;62.75;;;;;-4.83;56.19;100562.31;5028952;28;9006;-78
2024/01/11 04:27:56;;;;;;;;;84.25;66.75;;;;;-5.20;57.48;100570.44;4985165;28;8857;-78
2024/01/11 04:30:25;;;;;;;;;84.00;65.50;;;;;-5.31;58.00;100574.91;4985930;28;9626;-77
2024/01/11 04:32:54;;;;;;;;;82.67;65.33;;;;;-6.64;62.31;100575.22;4969560;28;8992;-75
2024/01/11 04:35:24;;;;;;;;;75.67;58.00;;;;;-7.38;65.73;100576.34;4989147;28;8960;-76
2024/01/11 04:37:53;;;;;;;;;82.67;66.33;;;;;-7.62;67.59;100582.31;4990719;28;8948;-79
2024/01/11 04:40:22;;;;;;;;;82.67;66.00;;;;;-7.67;67.91;100586.22;4990258;28;9123;-79
2024/01/11 04:42:51;;;;;;;;;79.00;63.00;;;;;-7.56;67.31;100591.28;4989928;28;9195;-78
2024/01/11 04:45:21;;;;;;;;;87.00;66.33;;;;;-7.73;68.49;100594.34;4990326;28;8887;-78
2024/01/11 04:47:52;;;;;;;;;73.75;60.00;;;;;-7.89;68.73;100592.41;4973405;28;8964;-79
2024/01/11 04:50:21;;;;;;;;;76.50;62.75;;;;;-7.81;68.60;100591.25;4959640;28;8969;-77
2024/01/11 04:52:51;;;;;;;;;77.75;61.25;;;;;-7.87;69.00;100601.06;4959984;28;8883;-77
2024/01/11 04:55:20;;;;;;;;;69.75;58.00;;;;;-7.93;69.78;100585.28;4977625;28;8887;-78
2024/01/11 04:57:49;;;;;;;;;77.00;61.25;;;;;-8.24;70.67;100595.88;4980610;28;8866;-78
2024/01/11 05:00:18;;;;;;;;;79.67;61.67;;;;;-8.20;70.60;100587.66;5055555;28;8915;-80
2024/01/11 05:02:49;;;;;;;;;75.33;63.67;;;;;-7.97;69.97;100584.22;5032474;28;8947;-79
2024/01/11 05:05:19;;;;;;;;;77.67;60.00;;;;;-8.02;70.31;100583.00;5050886;28;9303;-78
2024/01/11 05:07:48;;;;;;;;;73.00;56.00;;;;;-7.32;68.38;100575.88;5015822;28;9196;-78
2024/01/11 05:10:19;;;;;;;;;88.33;70.33;;;;;-6.85;67.27;100582.34;5029865;28;8855;-78
2024/01/11 05:12:48;;;;;;;;;95.25;72.50;;;;;-6.55;65.61;100580.03;5048996;28;9080;-81
2024/01/11 05:15:17;;;;;;;;;84.67;67.00;;;;;-6.92;65.29;100585.31;5050414;28;9832;-79
2024/01/11 05:17:46;;;;;;;;;88.33;67.00;;;;;-7.30;66.74;100579.41;5028267;28;9032;-78
2024/01/11 05:20:17;;;;;;;;;83.33;66.00;;;;;-7.81;68.68;100578.50;5028195;28;9025;-80
2024/01/11 05:22:46;;;;;;;;;92.00;69.00;;;;;-7.78;68.59;100585.47;5028305;28;9446;-78
2024/01/11 05:25:15;;;;;;;;;95.00;72.00;;;;;-7.41;67.14;100580.34;5048961;28;9629;-78
2024/01/11 05:27:45;;;;;;;;;84.33;64.33;;;;;-7.39;67.82;100574.56;5025656;28;9475;-79
2024/01/11 05:30:14;;;;;;;;;91.50;70.50;;;;;-7.42;66.93;100571.81;5026689;28;10246;-78
2024/01/11 05:32:44;;;;;;;;;85.00;66.67;;;;;-7.54;67.73;100568.41;5028803;28;9495;-78
2024/01/11 05:35:13;;;;;;;;;91.67;68.33;;;;;-7.32;67.33;100564.78;5014876;28;9182;-77
2024/01/11 05:37:44;;;;;;;;;90.75;70.00;;;;;-7.07;65.75;100570.72;5048114;28;9588;-79
2024/01/11 05:40:13;;;;;;;;;93.00;70.25;;;;;-7.21;66.48;100564.69;5033997;28;9553;-80
2024/01/11 05:42:43;;;;;;;;;89.00;69.25;;;;;-7.00;66.14;100566.91;5033997;28;9559;-79
2024/01/11 05:45:11;;;;;;;;;101.00;77.25;;;;;-6.92;64.86;100560.63;4981632;28;9754;-78
2024/01/11 05:47:46;;;;;;;;;97.25;72.00;;;;;-6.89;64.90;100555.72;5000470;28;10622;-80
2024/01/11 05:50:15;;;;;;;;;99.50;76.50;;;;;-7.11;65.54;100560.19;5081523;28;9897;-82
2024/01/11 05:52:46;;;;;;;;;99.50;77.00;;;;;-7.49;66.99;100561.94;5044497;28;9873;-77
2024/01/11 05:55:15;;;;;;;;;92.50;66.00;;;;;-7.23;66.79;100557.69;5022702;28;9826;-78
2024/01/11 05:57:45;;;;;;;;;98.50;74.50;;;;;-6.99;65.76;100561.00;5050984;28;9794;-79
2024/01/11 06:00:15;;;;;;;;;91.50;72.25;;;;;-7.31;66.82;100564.84;5049881;28;9992;-76
2024/01/11 06:02:46;;;;;;;;;106.00;78.50;;;;;-7.82;68.56;100566.50;5049806;28;9806;-78
2024/01/11 06:05:15;;;;;;;;;96.25;72.00;;;;;-8.07;68.85;100569.03;5088120;28;10385;-77
2024/01/11 06:07:44;;;;;;;;;73.67;58.67;;;;;-8.24;69.87;100566.94;5087573;28;9852;-77
2024/01/11 06:10:15;;;;;;;;;93.00;69.00;;;;;-8.90;72.03;100574.94;5098147;28;9422;-78
2024/01/11 06:12:44;;;;;;;;;88.33;66.33;;;;;-9.16;73.06;100568.78;5070891;28;9337;-80
2024/01/11 06:15:13;;;;;;;;;94.00;71.33;;;;;-9.60;75.40;100573.97;5052089;28;9164;-78
2024/01/11 06:17:42;;;;;;;;;93.50;75.25;;;;;-9.34;75.16;100578.50;5073326;28;9428;-81
2024/01/11 06:20:12;;;;;;;;;90.75;70.50;;;;;-8.90;74.09;100572.38;5054814;28;10007;-75
2024/01/11 06:22:41;;;;;;;;;87.25;67.25;;;;;-8.30;72.42;100569.94;5054532;28;9687;-79
2024/01/11 06:25:16;;;;;;;;;101.00;77.75;;;;;-8.22;70.71;100557.75;5087112;28;9653;-77
2024/01/11 06:27:45;;;;;;;;;36.50;21.50;;;;;-7.72;69.88;100562.03;5070008;28;10182;-77
2024/01/11 06:30:14;;;;;;;;;91.00;71.00;;;;;-7.32;68.30;100564.78;5087776;28;9970;-81
2024/01/11 06:32:44;;;;;;;;;91.33;68.33;;;;;-6.88;67.31;100554.91;5027812;28;9718;-78
2024/01/11 06:35:13;;;;;;;;;91.50;72.50;;;;;-6.48;66.61;100557.50;5013197;28;9450;-81
2024/01/11 06:37:42;;;;;;;;;94.50;73.50;;;;;-6.15;64.96;100551.84;5011422;28;9901;-78
2024/01/11 06:40:12;;;;;;;;;83.00;61.00;;;;;-6.60;64.71;100547.38;5005985;28;9997;-80
2024/01/11 06:42:43;;;;;;;;;94.25;71.00;;;;;-6.52;65.27;100554.66;5007859;28;9983;-82
2024/01/11 06:45:11;;;;;;;;;90.33;73.33;;;;;-7.00;64.25;100562.69;5023312;28;9595;-78
2024/01/11 06:47:41;;;;;;;;;96.50;75.00;;;;;-7.40;66.73;100559.13;4995309;28;9414;-78
2024/01/11 06:50:10;;;;;;;;;96.50;73.50;;;;;-7.44;66.59;100565.72;5014048;28;9941;-76
2024/01/11 06:52:39;;;;;;;;;93.50;71.00;;;;;-7.68;68.09;100569.16;4994955;28;9623;-76
2024/01/11 06:55:10;;;;;;;;;86.00;65.00;;;;;-7.25;66.72;100570.38;5008221;28;9664;-77
2024/01/11 06:57:39;;;;;;;;;84.50;61.25;;;;;-7.56;66.63;100569.97;5030696;28;9512;-77
2024/01/11 07:00:10;;;;;;;;;96.25;75.00;;;;;-7.83;68.23;100577.50;5035497;28;9682;-79
2024/01/11 07:02:40;;;;;;;;;98.00;72.00;;;;;-7.65;66.88;100582.97;5008777;28;9843;-77
2024/01/11 07:05:09;;;;;;;;;96.00;74.50;;;;;-8.54;70.39;100587.78;5035259;28;9632;-79
2024/01/11 07:07:39;;;;;;;;;83.75;66.00;;;;;-8.85;72.18;100594.88;4983562;28;9526;-79
2024/01/11 07:10:09;;;;;;;;;99.50;75.00;;;;;-9.02;73.41;100593.63;5065170;28;9623;-80
2024/01/11 07:12:40;;;;;;;;;88.50;69.25;;;;;-8.91;73.18;100591.91;5046494;28;9680;-79
2024/01/11 07:15:11;;;;;;;;;82.50;66.00;;;;;-9.12;73.23;100596.25;5046190;28;9557;-77
2024/01/11 07:17:41;;;;;;;;;88.25;68.50;;;;;-9.27;75.04;100603.66;5013859;28;9767;-79
2024/01/11 07:20:11;;;;;;;;;90.67;67.00;;;;;-9.50;76.01;100601.88;5046911;28;9654;-79
2024/01/11 07:22:40;;;;;;;;;75.67;61.67;;;;;-9.52;75.84;100600.88;5029915;28;10552;-80
2024/01/11 07:25:11;;;;;;;;;103.75;79.25;;;;;-9.21;76.29;100600.69;5029343;28;9488;-81
2024/01/11 07:27:40;;;;;;;;;72.67;55.33;;;;;-9.23;74.90;100590.38;5046699;28;10878;-80
2024/01/11 07:30:12;;;;;;;;;93.00;72.00;;;;;-8.78;74.50;100580.91;4986746;28;9335;-79
2024/01/11 07:32:42;;;;;;;;;83.33;55.33;;;;;-8.16;72.90;100576.94;4951093;28;9367;-77
2024/01/11 07:35:12;;;;;;;;;91.67;67.67;;;;;-8.09;70.85;100568.03;4966555;28;9442;-78
2024/01/11 07:37:47;;;;;;;;;89.67;69.33;;;;;-8.31;71.06;100574.94;4927543;28;9427;-76
2024/01/11 07:40:16;;;;;;;;;88.00;69.00;;;;;-8.27;70.50;100571.81;4985999;28;9877;-77
2024/01/11 07:42:46;;;;;;;;;91.00;70.00;;;;;-8.31;70.59;100580.03;4970826;28;9882;-78
2024/01/11 07:45:18;;;;;;;;;91.33;69.67;;;;;-7.60;69.51;100573.09;5005994;28;9801;-77
2024/01/11 07:47:48;;;;;;;;;80.67;66.00;;;;;-7.34;67.80;100567.22;4997423;28;9538;-77
2024/01/11 07:50:17;;;;;;;;;83.33;65.33;;;;;-7.53;68.25;100554.88;4995984;28;9108;-80
2024/01/11 07:52:46;;;;;;;;;85.67;67.67;;;;;-7.03;67.49;100559.91;5006801;28;9331;-79
2024/01/11 07:55:15;;;;;;;;;89.33;67.00;;;;;-6.57;66.73;100557.81;4941578;28;9090;-80
2024/01/11 07:57:44;;;;;;;;;88.33;71.67;;;;;-6.90;65.07;100559.06;5006726;28;9426;-78
2024/01/11 08:00:14;;;;;;;;;86.25;66.00;;;;;-7.44;67.36;100555.50;4991165;28;9409;-79
2024/01/11 08:02:44;;;;;;;;;82.33;65.33;;;;;-7.35;66.33;100563.75;5029996;28;9647;-79
2024/01/11 08:05:13;;;;;;;;;88.25;66.50;;;;;-7.46;65.92;100566.38;5047307;28;9195;-79
2024/01/11 08:07:43;;;;;;;;;90.00;71.33;;;;;-7.37;66.40;100567.88;5031351;28;9729;-79
2024/01/11 08:10:12;;;;;;;;;89.00;69.00;;;;;-7.03;66.07;100567.56;5051768;28;9437;-79
2024/01/11 08:12:41;;;;;;;;;78.67;62.33;;;;;-7.70;67.61;100563.03;5052083;28;9903;-78
2024/01/11 08:15:12;;;;;;;;;84.33;66.00;;;;;-7.20;67.08;100563.91;5017761;28;9020;-77
2024/01/11 08:17:46;;;;;;;;;85.67;66.67;;;;;-6.86;67.47;100558.47;5051035;28;9232;-79
2024/01/11 08:20:17;;;;;;;;;86.75;70.75;;;;;-6.89;66.32;100557.38;5050614;28;9327;-77
2024/01/11 08:22:46;;;;;;;;;87.00;67.67;;;;;-6.75;66.44;100554.06;5050445;28;9551;-79
2024/01/11 08:25:15;;;;;;;;;93.67;71.33;;;;;-6.21;64.80;100554.91;5034048;28;9109;-76
2024/01/11 08:27:44;;;;;;;;;92.00;68.33;;;;;-7.20;65.79;100558.78;5050234;28;9182;-80
2024/01/11 08:30:14;;;;;;;;;74.00;59.75;;;;;-7.10;67.05;100560.28;5050526;28;9446;-79
2024/01/11 08:32:43;;;;;;;;;78.00;60.00;;;;;-6.87;65.44;100555.78;5051044;28;8971;-78
2024/01/11 08:35:14;;;;;;;;;73.00;52.67;;;;;-7.75;68.28;100567.81;5055778;28;9031;-77
2024/01/11 08:37:43;;;;;;;;;91.67;69.67;;;;;-8.11;70.79;100561.06;5022899;28;9327;-78
2024/01/11 08:40:13;;;;;;;;;92.00;72.00;;;;;-8.13;71.67;100559.28;5036803;28;9422;-79
2024/01/11 08:42:42;;;;;;;;;87.33;65.00;;;;;-7.34;69.97;100554.44;5051410;28;9573;-80
2024/01/11 08:45:17;;;;;;;;;84.33;66.33;;;;;-7.61;69.53;100551.81;5052271;28;9166;-81
2024/01/11 08:47:47;;;;;;;;;80.00;63.00;;;;;-8.23;71.68;100548.31;5050194;28;10469;-79
2024/01/11 08:50:18;;;;;;;;;89.50;69.25;;;;;-8.24;72.37;100542.31;5050151;28;9460;-80
2024/01/11 08:52:52;;;;;;;;;64.33;49.67;;;;;-7.84;70.06;100545.09;5051400;28;9552;-80
2024/01/11 08:55:21;;;;;;;;;89.33;67.00;;;;;-8.08;70.98;100539.19;5017639;28;9010;-77
2024/01/11 08:57:50;;;;;;;;;94.75;71.75;;;;;-8.56;73.30;100545.13;5001013;28;9350;-77
2024/01/11 09:00:19;;;;;;;;;95.00;71.75;;;;;-8.32;73.16;100538.34;5051487;28;10530;-79
2024/01/11 09:02:49;;;;;;;;;88.33;71.00;;;;;-8.45;73.60;100539.16;5035933;28;9747;-79
2024/01/11 09:05:21;;;;;;;;;85.33;66.33;;;;;-7.88;72.63;100540.56;5052204;28;10157;-79
2024/01/11 09:07:50;;;;;;;;;89.25;70.50;;;;;-8.60;73.38;100538.94;5050049;28;9359;-80
2024/01/11 09:10:22;;;;;;;;;93.75;72.25;;;;;-7.82;72.06;100540.09;5050162;28;10622;-79
2024/01/11 09:12:50;;;;;;;;;91.25;70.50;;;;;-7.67;71.37;100532.59;5033132;28;9697;-78
2024/01/11 09:15:19;;;;;;;;;88.00;68.50;;;;;-7.00;69.76;100526.91;5049066;28;9797;-79
2024/01/11 09:17:49;;;;;;;;;95.25;73.25;;;;;-6.45;68.71;100526.13;5049267;28;9751;-80
2024/01/11 09:20:20;;;;;;;;;86.50;69.00;;;;;-5.93;67.15;100519.09;5016115;28;9763;-79
2024/01/11 09:22:50;;;;;;;;;89.00;65.33;;;;;-5.54;65.98;100514.63;5048046;28;9484;-77
2024/01/11 09:25:19;;;;;;;;;85.33;70.00;;;;;-5.86;64.71;100520.38;5052252;28;9131;-78
2024/01/11 09:27:49;;;;;;;;;101.00;73.00;;;;;-6.09;66.15;100524.09;5057241;28;9388;-79
2024/01/11 09:30:18;;;;;;;;;88.67;69.33;;;;;-5.92;64.19;100525.13;5069728;28;9517;-80
2024/01/11 09:32:48;;;;;;;;;94.00;71.33;;;;;-6.37;65.80;100525.78;5032866;28;9425;-79
2024/01/11 09:35:17;;;;;;;;;94.00;70.00;;;;;-6.99;66.50;100523.53;5048790;28;9736;-79
2024/01/11 09:37:48;;;;;;;;;93.67;73.67;;;;;-7.38;68.75;100521.81;5032031;28;9264;-80
2024/01/11 09:40:17;;;;;;;;;87.33;69.00;;;;;-7.30;68.80;100525.75;5015428;28;9509;-80
2024/01/11 09:42:46;;;;;;;;;93.00;69.33;;;;;-7.03;68.48;100513.91;5048655;28;9395;-78
2024/01/11 09:45:17;;;;;;;;;93.00;74.33;;;;;-6.76;67.72;100519.03;5048698;28;9085;-79
2024/01/11 09:47:47;;;;;;;;;99.67;71.67;;;;;-7.16;68.60;100512.22;5059033;28;9261;-77
2024/01/11 09:50:18;;;;;;;;;83.33;66.00;;;;;-6.78;66.89;100507.81;5053472;28;9402;-81
2024/01/11 09:52:50;;;;;;;;;94.33;70.33;;;;;-6.42;65.84;100500.72;5066778;28;9000;-77
2024/01/11 09:55:21;;;;;;;;;88.67;69.00;;;;;-6.22;64.85;100499.41;5033024;28;9446;-79
2024/01/11 09:57:57;;;;;;;;;80.67;65.67;;;;;-6.07;64.93;100496.91;5055609;28;9127;-79
2024/01/11 10:00:28;;;;;;;;;80.67;68.33;;;;;-6.92;66.85;100490.72;5040548;28;9080;-79
2024/01/11 10:02:57;;;;;;;;;89.67;67.33;;;;;-7.13;68.18;100488.56;5069443;28;9270;-80
2024/01/11 10:05:28;;;;;;;;;85.33;68.00;;;;;-6.31;66.58;100483.50;5035404;28;8939;-78
2024/01/11 10:07:59;;;;;;;;;80.33;66.00;;;;;-6.31;66.36;100483.50;5068093;28;9309;-80
2024/01/11 10:10:28;;;;;;;;;91.00;69.67;;;;;-5.87;64.42;100475.06;5051714;28;8945;-79
2024/01/11 10:12:57;;;;;;;;;83.67;65.33;;;;;-5.35;63.56;100472.16;5067728;28;9026;-80
2024/01/11 10:15:26;;;;;;;;;95.33;72.67;;;;;-4.89;62.62;100464.50;5051265;28;9178;-78
2024/01/11 10:17:57;;;;;;;;;94.00;75.33;;;;;-5.19;61.33;100467.09;5084564;28;9392;-77
2024/01/11 10:20:27;;;;;;;;;93.00;72.67;;;;;-5.05;61.56;100449.97;5037259;28;9514;-79
2024/01/11 10:23:01;;;;;;;;;88.00;69.33;;;;;-5.58;62.28;100447.75;5074009;28;9477;-78
2024/01/11 10:25:30;;;;;;;;;90.00;70.00;;;;;-6.35;63.95;100461.94;5071469;28;9258;-79
2024/01/11 10:27:59;;;;;;;;;97.00;75.33;;;;;-6.38;65.32;100451.50;5069963;28;9415;-77
2024/01/11 10:30:28;;;;;;;;;103.67;75.67;;;;;-6.11;64.22;100442.09;5036830;28;9235;-80
2024/01/11 10:32:59;;;;;;;;;94.33;67.67;;;;;-5.80;64.42;100433.69;5067685;28;9391;-78
2024/01/11 10:35:28;;;;;;;;;93.00;71.33;;;;;-5.25;63.34;100425.75;5032272;28;9332;-78
2024/01/11 10:38:04;;;;;;;;;90.67;68.33;;;;;-4.98;61.96;100425.53;5048782;28;10160;-80
2024/01/11 10:40:33;;;;;;;;;95.50;76.75;;;;;-4.68;61.41;100419.56;5066060;28;9322;-78
2024/01/11 10:43:03;;;;;;;;;90.00;66.67;;;;;-4.29;61.23;100425.03;5049200;28;9651;-78
2024/01/11 10:45:38;;;;;;;;;94.67;74.00;;;;;-3.96;60.37;100422.50;5051259;28;9413;-78
2024/01/11 10:48:13;;;;;;;;;89.33;65.33;;;;;-4.30;56.88;100410.47;5050308;28;9416;-79
2024/01/11 10:50:45;;;;;;;;;90.67;69.00;;;;;-4.37;59.46;100416.06;5049625;28;9270;-78
2024/01/11 10:53:29;;;;;;;;;93.33;73.00;;;;;-3.94;59.09;100410.63;5029094;28;9332;-82
2024/01/11 10:56:00;;;;;;;;;88.33;66.67;;;;;-3.79;58.37;100399.34;5045100;28;9249;-78
2024/01/11 10:58:31;;;;;;;;;91.00;67.67;;;;;-3.61;56.72;100394.25;5027888;28;9085;-80
2024/01/11 11:01:01;;;;;;;;;98.33;75.67;;;;;-4.04;56.77;100382.69;5029992;28;9456;-79
2024/01/11 11:03:32;;;;;;;;;95.33;72.67;;;;;-3.91;57.77;100382.50;5031677;28;9445;-78
2024/01/11 11:06:02;;;;;;;;;87.67;69.67;;;;;-3.64;57.65;100387.25;5086588;28;9437;-80
2024/01/11 11:08:32;;;;;;;;;101.00;77.75;;;;;-3.85;56.35;100384.50;5068364;28;9536;-78
2024/01/11 11:11:05;;;;;;;;;93.00;74.33;;;;;-3.68;56.75;100382.78;5050409;28;9623;-78
2024/01/11 11:13:35;;;;;;;;;95.67;72.67;;;;;-3.32;57.00;100372.53;5069331;28;9261;-79
2024/01/11 11:16:06;;;;;;;;;92.33;73.00;;;;;-3.10;56.43;100366.75;5087153;28;9290;-79
2024/01/11 11:18:37;;;;;;;;;96.33;74.33;;;;;-2.98;55.16;100358.72;5054477;28;9310;-81
2024/01/11 11:21:10;;;;;;;;;105.75;78.50;;;;;-4.12;56.18;100369.44;5089099;28;9529;-78
2024/01/11 11:23:41;;;;;;;;;96.33;75.67;;;;;-4.36;59.28;100363.03;5071274;28;10362;-77